• Join FlightAware (Why Join?)
  • Login
  • US Flag 
05:20AM EST


 

Airport Tracker/Info


-or-


 

Live Flight TrackerFlight Track Log ✈ ASA630 ✈ 29-Apr-2013 ✈ KSEA - KPHX

Flight Track Log - Related Links

Times and Time Zones

All times are in EDT time to prevent confusion due to time zone crossing. See the ASA630 flight status page for this flight to view local times or setup timezone preferences in your user account.

Time Position Orientation Groundspeed Altitude Reporting Facility
EDT Latitude Longitude Course Direction KTS MPH feet Rate Location/Type
10:47PM 47.4378 -122.3122 180° South 174 200 1,600  Level Seattle Center
10:48PM 47.3975 -122.3125 180° South 187 215 3,600 2,520 Climbing Seattle Center
10:49PM 47.3289 -122.3106 179° South 246 283 6,200 2,820 Climbing Seattle Center
10:50PM 47.2558 -122.2853 167° South 272 313 9,400 2,520 Climbing Seattle Center
10:51PM 47.1775 -122.2478 162° South 305 351 11,400 1,920 Climbing Seattle Center
10:52PM 47.0822 -122.2022 162° South 364 419 13,400 2,340 Climbing Seattle Center
10:53PM 46.9769 -122.1556 163° South 399 459 16,200 2,640 Climbing Seattle Center
10:54PM 46.8656 -122.1050 163° South 424 488 18,800 2,460 Climbing Seattle Center
10:55PM 46.7500 -122.0522 163° South 437 503 21,300 2,160 Climbing Seattle Center
10:56PM 46.6042 -121.9761 160° South 471 542 23,300 1,620 Climbing Seattle Center
10:57PM 46.4822 -121.8597 147° Southeast 523 602 24,600 1,680 Climbing Seattle Center
10:58PM 46.3600 -121.7361 145° Southeast 540 621 26,700 1,860 Climbing Seattle Center
10:59PM 46.2353 -121.6133 146° Southeast 546 628 28,400 1,440 Climbing Seattle Center
11:00PM 46.1139 -121.4856 144° Southeast 555 639 29,700 1,500 Climbing Seattle Center
11:01PM 45.9833 -121.3606 146° Southeast 563 648 31,500 1,740 Climbing Seattle Center
11:02PM 45.8533 -121.2344 146° Southeast 566 651 33,300 1,620 Climbing Seattle Center
11:03PM 45.7239 -121.1117 146° Southeast 561 646 34,800 1,800 Climbing Seattle Center
11:04PM 45.5944 -121.0022 149° Southeast 546 628 37,000 1,740 Climbing Seattle Center
11:05PM 45.4700 -120.8972 149° Southeast 527 606 38,400 900 Climbing Seattle Center
11:06PM 45.3206 -120.7717 149° Southeast 522 601 38,900 240 Climbing Seattle Center
11:07PM 45.1942 -120.6672 150° Southeast 528 608 39,000  Climbing Seattle Center
11:08PM 45.0683 -120.5622 149° Southeast 529 609 39,000  Level Seattle Center
11:09PM 44.9433 -120.4586 150° Southeast 527 606 39,000  Level Seattle Center
11:10PM 44.8192 -120.3544 149° Southeast 528 608 39,000  Level Seattle Center
11:11PM 44.6953 -120.2525 150° Southeast 525 604 39,000  Level Seattle Center
11:12PM 44.5708 -120.1522 150° Southeast 524 603 39,000  Level Seattle Center
11:13PM 44.4486 -120.0519 150° Southeast 517 595 39,000  Level Seattle Center
11:14PM 44.3239 -119.9519 150° Southeast 517 595 39,000  Level Seattle Center
11:15PM 44.1756 -119.8319 150° Southeast 515 593 39,000  Level Seattle Center
11:16PM 44.0511 -119.7356 151° Southeast 517 595 39,000  Level Seattle Center
11:17PM 43.9294 -119.6356 149° Southeast 508 585 39,000  Level Seattle Center
11:18PM 43.8111 -119.5267 146° Southeast 513 590 39,000  Level Seattle Center
11:19PM 43.7019 -119.3950 139° Southeast 520 598 39,000  Level Seattle Center
11:20PM 43.5919 -119.2656 140° Southeast 520 598 39,000  Level Seattle Center
11:21PM 43.4806 -119.1386 140° Southeast 520 598 39,000  Level Seattle Center
11:23PM 43.3694 -119.0094 140° Southeast 524 603 39,000  Level Seattle Center
11:24PM 43.2497 -118.8753 141° Southeast 522 601 39,000  Level Seattle Center
11:24PM 43.2131 -118.8328 140° Southeast 525 604 39,000  Level Salt Lake Center
11:25PM 43.1014 -118.7056 140° Southeast 524 603 39,000  Level Salt Lake Center
11:26PM 42.9661 -118.5528 140° Southeast 526 605 39,000  Level Salt Lake Center
11:27PM 42.8550 -118.4281 141° Southeast 520 598 39,000  Level Salt Lake Center
11:28PM 42.7447 -118.3053 141° Southeast 514 592 39,000  Level Salt Lake Center
11:29PM 42.6264 -118.1742 141° Southeast 520 598 39,000  Level Salt Lake Center
11:30PM 42.5136 -118.0467 140° Southeast 545 627 39,000  Level Salt Lake Center
11:31PM 42.3881 -117.9072 141° Southeast 528 608 39,000  Level Salt Lake Center
11:32PM 42.2800 -117.7881 141° Southeast 527 606 39,000  Level Salt Lake Center
11:33PM 42.1681 -117.6706 142° Southeast 523 602 39,000  Level Salt Lake Center
11:34PM 42.0589 -117.5508 141° Southeast 525 604 39,000  Level Salt Lake Center
11:35PM 41.9342 -117.4128 141° Southeast 521 600 39,000  Level Salt Lake Center
11:36PM 41.8275 -117.2972 141° Southeast 514 592 39,000  Level Salt Lake Center
11:37PM 41.7042 -117.1667 142° Southeast 507 583 39,000  Level Salt Lake Center
11:38PM 41.5992 -117.0567 142° Southeast 501 577 39,000  Level Salt Lake Center
11:39PM 41.4936 -116.9447 142° Southeast 504 580 39,000  Level Salt Lake Center
11:40PM 41.3703 -116.8139 141° Southeast 506 582 39,000  Level Salt Lake Center
11:41PM 41.2664 -116.7033 141° Southeast 500 575 39,000  Level Salt Lake Center
11:42PM 41.1639 -116.5950 141° Southeast 493 567 39,000  Level Salt Lake Center
11:43PM 41.0428 -116.4703 142° Southeast 491 565 39,000  Level Salt Lake Center
11:44PM 40.9372 -116.3597 142° Southeast 497 572 39,000  Level Salt Lake Center
11:45PM 40.8333 -116.2536 142° Southeast 494 568 39,000  Level Salt Lake Center
11:46PM 40.7136 -116.1281 142° Southeast 490 564 39,000  Level Salt Lake Center
11:47PM 40.6103 -116.0228 142° Southeast 486 559 39,000  Level Salt Lake Center
11:48PM 40.5067 -115.9189 143° Southeast 487 560 39,000  Level Salt Lake Center
11:49PM 40.3869 -115.7947 142° Southeast 489 563 39,000  Level Salt Lake Center
11:50PM 40.2850 -115.6906 142° Southeast 486 559 39,000  Level Salt Lake Center
11:51PM 40.1825 -115.5869 142° Southeast 484 557 39,000  Level Salt Lake Center
11:53PM 40.0622 -115.4647 142° Southeast 488 562 39,000  Level Salt Lake Center
11:54PM 39.9581 -115.3633 143° Southeast 488 562 39,000  Level Salt Lake Center
11:55PM 39.8544 -115.2592 142° Southeast 490 564 39,000  Level Salt Lake Center
11:56PM 39.7328 -115.1383 143° Southeast 492 566 39,000  Level Salt Lake Center
11:57PM 39.6289 -115.0353 143° Southeast 490 564 39,000  Level Salt Lake Center
11:58PM 39.5250 -114.9333 143° Southeast 489 563 39,000  Level Salt Lake Center
11:59PM 39.4022 -114.8167 144° Southeast 490 564 39,000  Level Salt Lake Center
12:00AM 39.2983 -114.7156 143° Southeast 488 562 39,000  Level Salt Lake Center
12:01AM 39.1939 -114.6158 143° Southeast 486 559 39,000  Level Salt Lake Center
12:02AM 39.0783 -114.4992 142° Southeast 481 554 39,000  Level Salt Lake Center
12:03AM 38.9719 -114.3964 143° Southeast 479 551 39,000  Level Salt Lake Center
12:04AM 38.8661 -114.2944 143° Southeast 477 549 39,000  Level Salt Lake Center
12:05AM 38.7608 -114.1942 143° Southeast 473 544 39,000  Level Salt Lake Center
12:06AM 38.6608 -114.0972 143° Southeast 457 526 39,000  Level Salt Lake Center
12:07AM 38.5558 -113.9997 144° Southeast 464 534 39,000  Level Salt Lake Center
12:08AM 38.4525 -113.9003 143° Southeast 466 536 39,000  Level Salt Lake Center
12:09AM 38.3483 -113.8036 144° Southeast 463 533 39,000  Level Salt Lake Center
12:10AM 38.2456 -113.7075 144° Southeast 461 531 39,000  Level Salt Lake Center
12:11AM 38.1217 -113.5914 144° Southeast 462 532 39,000  Level Salt Lake Center
12:12AM 38.0189 -113.4956 144° Southeast 460 529 39,000  Level Salt Lake Center
12:13AM 37.9139 -113.4000 144° Southeast 465 535 39,000  Level Salt Lake Center
12:14AM 37.7992 -113.3297 154° Southeast 462 532 39,000  Level Salt Lake Center
12:15AM 37.6825 -113.2667 157° South 460 529 39,000  Level Salt Lake Center
12:16AM 37.5672 -113.2019 156° South 460 529 39,000  Level Salt Lake Center
12:17AM 37.4519 -113.1392 157° South 458 527 39,000  Level Salt Lake Center
12:18AM 37.3367 -113.0753 156° South 459 528 39,000  Level Salt Lake Center
12:19AM 37.1981 -112.9989 156° South 458 527 39,000  Level Salt Lake Center
12:20AM 37.0828 -112.9369 157° South 455 524 39,000  Level Salt Lake Center
12:20AM 37.0586 -112.9239 157° South 453 521 39,000  Level Los Angeles Center
12:21AM 36.9450 -112.8608 156° South 448 516 39,000  Level Los Angeles Center
12:22AM 36.8303 -112.7983 156° South 449 517 39,000 -780 Level Los Angeles Center
12:23AM 36.7119 -112.7358 157° South 459 528 37,500 -2,640 Descending Los Angeles Center
12:24AM 36.5692 -112.6583 156° South 466 536 33,600 -2,220 Descending Los Angeles Center
12:25AM 36.4475 -112.5931 157° South 473 544 33,000 -300 Descending Los Angeles Center
12:26AM 36.3272 -112.5281 156° South 471 542 33,000 -180 Level Los Angeles Center
12:27AM 36.2053 -112.4653 157° South 472 543 32,700 -1,260 Descending Los Angeles Center
12:28AM 36.0839 -112.4022 157° South 472 543 30,500 -1,860 Descending Los Angeles Center
12:29AM 35.9506 -112.4081 182° South 470 541 29,000 -780 Descending Los Angeles Center
12:30AM 35.8217 -112.4128 182° South 457 526 29,000  Level Los Angeles Center
12:31AM 35.6953 -112.4183 182° South 455 524 29,000  Level Los Angeles Center
12:32AM 35.5922 -112.4233 182° South 460 529 29,000  Level Los Angeles Center
12:34AM 35.4386 -112.4364 184° South 460 529 29,000  Level Los Angeles Center
12:34AM 35.3608 -112.4317 177° South 462 532 29,000  Level Albuquerque Center
12:35AM 35.2358 -112.4033 170° South 458 527 29,000  Level Albuquerque Center
12:36AM 35.1136 -112.3778 170° South 447 514 29,000 -300 Level Albuquerque Center
12:37AM 34.9931 -112.3514 170° South 442 509 28,500 -1,500 Descending Albuquerque Center
12:38AM 34.8531 -112.3211 170° South 430 495 26,000 -1,440 Descending Albuquerque Center
12:39AM 34.7386 -112.2964 170° South 422 486 25,600 -1,320 Descending Albuquerque Center
12:40AM 34.6336 -112.2719 169° South 415 478 23,400 -2,220 Descending Albuquerque Center
12:41AM 34.5247 -112.2483 170° South 404 465 21,200 -1,680 Descending Albuquerque Center
12:42AM 34.4200 -112.2247 169° South 390 449 20,000 -600 Descending Albuquerque Center
12:43AM 34.3200 -112.1969 167° South 376 433 20,000 -900 Level Albuquerque Center
12:44AM 34.2231 -112.1717 168° South 365 420 18,200 -1,920 Descending Albuquerque Center
12:45AM 34.1283 -112.1478 168° South 350 403 16,200 -1,680 Descending Albuquerque Center
12:46AM 34.0250 -112.1203 168° South 317 365 14,800 -1,440 Descending Albuquerque Center
12:47AM 33.9428 -112.0992 168° South 307 353 13,300 -1,500 Descending Albuquerque Center
12:48AM 33.8625 -112.0789 168° South 298 343 11,800 -1,500 Descending Albuquerque Center
12:49AM 33.7836 -112.0592 168° South 292 336 10,300 -900 Descending Albuquerque Center
12:50AM 33.7036 -112.0431 170° South 293 337 10,000 -600 Descending Albuquerque Center
12:51AM 33.6256 -112.0294 172° South 286 329 9,200 -720 Descending Albuquerque Center
12:52AM 33.5606 -112.0061 163° South 251 289 8,600 -840 Descending Albuquerque Center
12:53AM 33.5278 -111.9350 119° Southeast 278 320 7,500 -1,200 Descending Albuquerque Center
12:54AM 33.5283 -111.8519 90° East 255 293 6,200 -1,020 Descending Albuquerque Center
12:55AM 33.4981 -111.8044 127° Southeast 209 241 5,500 -1,080 Descending Albuquerque Center
12:56AM 33.4572 -111.8264 204° Southwest 163 188 4,100 -1,320 Descending Albuquerque Center
12:57AM 33.4453 -111.8706 252° West 139 160 2,900 -900 Descending Albuquerque Center
12:58AM 33.4408 -111.9136 263° West 131 151 2,300 -720 Descending Albuquerque Center
12:59AM 33.4411 -111.9678 270° West 137 158 1,500 -600 Descending Albuquerque Center
01:00AM 33.4392 -112.0106 267° West 144 166 1,100 -420 Descending Albuquerque Center